This is the latest recevied weather packets stored in our database for station/object GBTWP-2. If no packets are shown the sender has not sent any weather packets the latest 1 day(s).
| Time | Temp. | Humidity | Pressure | Rain* | Wind** | Luminosity | Snow |
|---|---|---|---|---|---|---|---|
| 1778094902 | 11.11° C | 45% | 1015.5 hPa | 0 mm | - | 117 W/m² | - |
| 1778094302 | 10.56° C | 48% | 1015.3 hPa | 0 mm | - | 162 W/m² | - |
| 1778091002 | 10° C | 51% | 1015.5 hPa | 0 mm | - | 135 W/m² | - |
| 1778088902 | 10° C | 48% | 1015.6 hPa | 0 mm | - | 124 W/m² | - |
| 1778086202 | 10° C | 56% | 1015.6 hPa | 0 mm | - | 60 W/m² | - |
| 1778078102 | 7.78° C | 58% | 1015.2 hPa | 0 mm | - | 77 W/m² | - |
| 1778073302 | 6.11° C | 67% | 1015 hPa | 0 mm | - | 30 W/m² | - |
| 1778070902 | 5° C | 69% | 1014.3 hPa | 0 mm | - | 24 W/m² | - |
| 1778064302 | 3.33° C | 82% | 1012.5 hPa | 0 mm | - | 6 W/m² | - |
| 1778062202 | 4.44° C | 79% | 1012.3 hPa | 0 mm | - | 0 W/m² | - |
| 1778058302 | 6.11° C | 85% | 1011.8 hPa | 0 mm | - | 0 W/m² | - |
| 1778057406 | 5.56° C | 85% | 1011.7 hPa | 0 mm | - | 0 W/m² | - |
| 1778056505 | 5.56° C | 84% | 1011.7 hPa | 0 mm | - | 0 W/m² | - |
| 1778055603 | 6.11° C | 83% | 1011.7 hPa | 0 mm | - | 0 W/m² | - |
| 1778055002 | 6.11° C | 81% | 1011.9 hPa | 0 mm | - | 0 W/m² | - |
| 1778051406 | 7.22° C | 73% | 1011.7 hPa | 0 mm | - | 0 W/m² | - |
| 1778047806 | 8.33° C | 64% | 1011.9 hPa | 0 mm | - | 0 W/m² | - |
| 1778047502 | 8.33° C | 63% | 1011.8 hPa | 0 mm | - | 0 W/m² | - |
| 1778045402 | 8.33° C | 60% | 1011.3 hPa | 0 mm | - | 0 W/m² | - |
| 1778044202 | 8.89° C | 58% | 1011.3 hPa | 0 mm | - | 0 W/m² | - |
| 1778041502 | 8.33° C | 60% | 1011.2 hPa | 0 mm | - | 0 W/m² | - |
| 1778040002 | 8.33° C | 64% | 1011.4 hPa | 0 mm | - | 0 W/m² | - |
| 1778039402 | 8.33° C | 61% | 1011.5 hPa | 0 mm | - | 0 W/m² | - |
| 1778038502 | 7.78° C | 64% | 1011.3 hPa | 0 mm | - | 0 W/m² | - |
| 1778037902 | 8.33° C | 65% | 1011.3 hPa | 0 mm | - | 0 W/m² | - |
* Rain latest hour (hover to see other rain measurements)
** Current wind speed in m/s (hover to see current wind gust speed)